Billings, MT

4:16 AM MDT on August 24, 2016 (GMT -0600)
Jupiter Sulphur | | Change Station

Elev 3114 ft 45.78 °N, 108.49 °W | Updated 5 minutes ago

Clear
Clear
53.1 °F
Feels Like 53.1 °F
N
2.0
Wind Variable Wind from SE
Gusts 2.0 mph

Today
High -- | Low -- °F
--% Chance of Precip.
Yesterday
High -- | Low -- °F
Precip. -- in
Pressure 30.16 in
Visibility 10.0 miles
Clouds Clear
Dew Point 45 °F
Humidity 74%
Rainfall 0.00 in
Snow Depth Not available.
6:25 AM 8:05 PM
Waning Gibbous, 58% visible
METAR KBIL 240953Z 00000KT 10SM CLR 12/06 A3023 RMK AO2 SLP213 T01220061
Pressure 30.16 in
Visibility 10.0 miles
Clouds Clear
Dew Point 45 °F
Humidity 74%
Rainfall 0.00 in
Snow Depth Not available.
6:25 AM 8:05 PM
Waning Gibbous, 58% visible
METAR KBIL 240953Z 00000KT 10SM CLR 12/06 A3023 RMK AO2 SLP213 T01220061

10-Day Weather Forecast

Almanac

Astronomy

Aug. 24, 2016 Rise Set
Actual Time
Civil Twilight
Nautical Twilight
Astronomical Twilight
Moon
Length of Visible Light
Length of Day
Tomorrow will be .
, % of the Moon is Illuminated

Today's Extremes

State Highs State Lows

Community

WunderPhotos

Upload Photos

1,934,560 photos uploaded!

WunderBlog® & News

Nearby

Air Quality

  Air Quality AQ Index Pollutant
Not available.

Snow Depth

Station Depth Elevation

Earthquake Activity

City Distance Mag. Time & Date
Minimum magnitude displayed is 2.5.

Coastal Water Temperatures

Place Temperature

Stations

Nearby Weather Stations

Station Location Temp. Windchill Dew Point Humidity Wind Precip. Elev Updated Type
                   

Watches & Warnings

There are currently no watches in effect.